Time;durP1;ratioP1;P1;durP2;ratioP2;P2;SDS_P1;SDS_P2;PMS_P1;PMS_P2;Temp;Humidity;BMP_temperature;BMP_pressure;BME280_temperature;BME280_humidity;BME280_pressure;Samples;Min_cycle;Max_cycle;Signal;HPM_P1;HPM_P2
2021/09/14 00:00:23;;;;;;;1999.90;999.90;;;;;;;12.16;84.95;95749.16;5030779;28;20202;-70
2021/09/14 00:02:50;;;;;;;1999.90;999.90;;;;;;;12.19;85.42;95746.75;5030872;28;20205;-71
2021/09/14 00:05:18;;;;;;;1999.90;999.90;;;;;;;12.01;84.76;95753.66;5030591;28;20218;-71
2021/09/14 00:07:45;;;;;;;1999.90;999.90;;;;;;;11.91;85.17;95751.28;5042351;28;20225;-71
2021/09/14 00:10:12;;;;;;;1999.90;999.90;;;;;;;11.90;85.29;95749.75;5050305;28;20201;-71
2021/09/14 00:12:39;;;;;;;1999.90;999.90;;;;;;;11.88;85.09;95757.09;5049960;28;20255;-71
2021/09/14 00:15:10;;;;;;;1999.90;999.90;;;;;;;12.00;85.33;95764.38;5050282;28;20291;-71
2021/09/14 00:17:38;;;;;;;1999.90;999.90;;;;;;;12.07;85.55;95760.28;5050223;28;20189;-71
2021/09/14 00:20:06;;;;;;;1999.90;999.90;;;;;;;11.67;83.98;95755.94;5050429;28;20197;-71
2021/09/14 00:22:34;;;;;;;1999.90;999.90;;;;;;;11.65;84.31;95758.09;5050115;28;20201;-70
2021/09/14 00:25:01;;;;;;;1999.90;999.90;;;;;;;11.72;84.42;95748.03;5050271;28;20275;-70
2021/09/14 00:27:28;;;;;;;1999.90;999.90;;;;;;;11.84;85.66;95755.38;5050167;28;20197;-70
2021/09/14 00:29:55;;;;;;;1999.90;999.90;;;;;;;11.97;86.72;95750.09;5049898;28;20205;-70
2021/09/14 00:32:24;;;;;;;1999.90;999.90;;;;;;;12.10;87.65;95758.16;5049973;28;20208;-71
2021/09/14 00:34:51;;;;;;;1999.90;999.90;;;;;;;12.18;87.39;95760.06;5050349;28;20197;-71
2021/09/14 00:37:18;;;;;;;1999.90;999.90;;;;;;;12.29;87.63;95763.97;5050168;28;20193;-71
2021/09/14 00:39:45;;;;;;;1999.90;999.90;;;;;;;12.35;88.18;95755.72;5049873;28;20201;-72
2021/09/14 00:42:12;;;;;;;1999.90;999.90;;;;;;;12.44;88.53;95761.00;5049962;28;20205;-70
2021/09/14 00:44:40;;;;;;;1999.90;999.90;;;;;;;12.47;88.85;95758.56;5049887;28;20205;-71
2021/09/14 00:47:07;;;;;;;1999.90;999.90;;;;;;;12.47;88.94;95758.56;5049725;28;20196;-72
2021/09/14 00:49:36;;;;;;;1999.90;999.90;;;;;;;12.46;88.41;95764.06;5050110;28;20209;-72
2021/09/14 00:52:03;;;;;;;1999.90;999.90;;;;;;;12.39;88.22;95761.91;5050084;28;20284;-71
2021/09/14 00:54:32;;;;;;;1999.90;999.90;;;;;;;12.42;88.59;95760.53;5050036;28;20205;-71
2021/09/14 00:57:00;;;;;;;1999.90;999.90;;;;;;;12.41;88.84;95769.41;5050056;28;20232;-70
2021/09/14 00:59:27;;;;;;;1999.90;999.90;;;;;;;12.42;88.35;95763.13;5050034;28;20201;-70
2021/09/14 01:01:55;;;;;;;1999.90;999.90;;;;;;;12.43;88.53;95767.28;5049799;28;20663;-71
2021/09/14 01:04:23;;;;;;;1999.90;999.90;;;;;;;12.44;88.46;95771.44;5049670;28;20216;-71
2021/09/14 01:06:51;;;;;;;1999.90;999.90;;;;;;;12.39;88.13;95763.72;5044833;28;20321;-71
2021/09/14 01:09:20;;;;;;;1999.90;999.90;;;;;;;12.29;87.39;95771.78;5030103;28;20198;-71
2021/09/14 01:11:47;;;;;;;1999.90;999.90;;;;;;;12.23;86.94;95773.75;5029939;28;20189;-72
2021/09/14 01:14:14;;;;;;;1999.90;999.90;;;;;;;12.12;85.98;95776.88;5029686;28;20201;-72
2021/09/14 01:16:42;;;;;;;1999.90;999.90;;;;;;;11.95;85.89;95775.69;5029702;28;20221;-71
2021/09/14 01:19:11;;;;;;;1999.90;999.90;;;;;;;11.89;85.60;95773.47;5029996;28;20280;-71
2021/09/14 01:21:39;;;;;;;1999.90;999.90;;;;;;;11.95;87.30;95773.09;5030088;28;20252;-71
2021/09/14 01:24:08;;;;;;;1999.90;999.90;;;;;;;11.92;88.37;95773.66;5030022;28;20666;-72
2021/09/14 01:26:36;;;;;;;1999.90;999.90;;;;;;;11.87;88.66;95760.75;5029557;28;20701;-71
2021/09/14 01:29:10;;;;;;;1999.90;999.90;;;;;;;11.74;87.92;95763.41;5029606;28;20237;-71
2021/09/14 01:31:37;;;;;;;1999.90;999.90;;;;;;;11.37;85.14;95774.78;5029501;28;20765;-71
2021/09/14 01:34:05;;;;;;;1999.90;999.90;;;;;;;11.35;85.33;95769.13;5029774;28;20275;-70
2021/09/14 01:36:33;;;;;;;1999.90;999.90;;;;;;;11.26;85.68;95771.63;5029855;28;20209;-71
2021/09/14 01:39:01;;;;;;;1999.90;999.90;;;;;;;11.15;86.17;95771.06;5029713;28;20236;-71
2021/09/14 01:41:29;;;;;;;1999.90;999.90;;;;;;;11.16;85.42;95767.38;5029460;28;20244;-70
2021/09/14 01:43:56;;;;;;;1999.90;999.90;;;;;;;11.09;84.88;95767.00;5029365;28;20205;-71
2021/09/14 01:46:24;;;;;;;1999.90;999.90;;;;;;;11.05;85.52;95762.69;5028854;28;20316;-72
2021/09/14 01:48:51;;;;;;;1999.90;999.90;;;;;;;10.96;85.94;95769.63;5029407;28;20197;-71
2021/09/14 01:51:18;;;;;;;1999.90;999.90;;;;;;;10.74;86.16;95763.22;5029614;28;20198;-70
2021/09/14 01:53:46;;;;;;;1999.90;999.90;;;;;;;10.70;86.44;95769.28;5029649;28;20593;-71
2021/09/14 01:56:13;;;;;;;1999.90;999.90;;;;;;;10.64;86.18;95770.44;5029429;28;20575;-70
2021/09/14 01:58:42;;;;;;;1999.90;999.90;;;;;;;10.53;86.78;95771.66;5032338;28;20202;-71
2021/09/14 02:01:14;;;;;;;1999.90;999.90;;;;;;;10.20;88.15;95771.66;5031195;28;20206;-71
2021/09/14 02:03:48;;;;;;;1999.90;999.90;;;;;;;10.35;88.51;95768.06;5030185;28;20202;-71
2021/09/14 02:34:09;;;;;;;1999.90;999.90;;;;;;;9.58;88.28;95780.56;5032511;28;20566;-70
2021/09/14 02:56:10;;;;;;;1999.90;999.90;;;;;;;9.61;90.08;95787.03;5032167;28;20232;-69
2021/09/14 02:58:57;;;;;;;1999.90;999.90;;;;;;;9.46;95.30;95793.19;5021271;28;20204;-70
2021/09/14 03:01:24;;;;;;;1999.90;999.90;;;;;;;9.55;95.04;95795.91;5031811;28;20212;-70
2021/09/14 03:03:55;;;;;;;1999.90;999.90;;;;;;;9.61;94.17;95789.63;5031832;28;20256;-70
2021/09/14 03:06:23;;;;;;;1999.90;999.90;;;;;;;9.60;94.54;95793.25;5031368;28;20238;-70
2021/09/14 03:08:51;;;;;;;1999.90;999.90;;;;;;;9.67;93.37;95799.63;5031988;28;20269;-70
2021/09/14 03:11:19;;;;;;;1999.90;999.90;;;;;;;9.56;92.28;95800.84;5031513;28;20197;-70
2021/09/14 03:13:46;;;;;;;1999.90;999.90;;;;;;;9.29;91.85;95803.22;5031789;28;20255;-70
2021/09/14 03:16:14;;;;;;;1999.90;999.90;;;;;;;9.20;92.36;95804.88;5031485;28;20724;-71
2021/09/14 03:18:42;;;;;;;1999.90;999.90;;;;;;;9.28;92.27;95802.44;5031357;28;20208;-71
2021/09/14 03:21:13;;;;;;;1999.90;999.90;;;;;;;9.43;92.15;95806.69;5031241;28;20198;-70
2021/09/14 03:23:41;;;;;;;1999.90;999.90;;;;;;;9.45;92.20;95796.81;5031787;28;20193;-71
2021/09/14 03:26:08;;;;;;;1999.90;999.90;;;;;;;9.39;92.29;95798.69;5031518;28;20253;-71
2021/09/14 03:28:36;;;;;;;1999.90;999.90;;;;;;;9.33;92.96;95797.19;5031495;28;20202;-71
2021/09/14 03:31:04;;;;;;;1999.90;999.90;;;;;;;9.30;93.91;95790.00;5031192;28;20311;-71
2021/09/14 03:33:32;;;;;;;1999.90;999.90;;;;;;;9.36;93.79;95794.06;5031099;28;20587;-71
2021/09/14 03:35:59;;;;;;;1999.90;999.90;;;;;;;9.48;93.69;95794.44;5031143;28;20252;-71
2021/09/14 03:38:28;;;;;;;1999.90;999.90;;;;;;;9.34;93.49;95800.56;5031491;28;20204;-71
2021/09/14 03:40:55;;;;;;;1999.90;999.90;;;;;;;9.22;92.62;95803.53;5030911;28;20232;-71
2021/09/14 03:43:22;;;;;;;1999.90;999.90;;;;;;;9.22;92.00;95802.75;5011516;28;20224;-70
2021/09/14 03:45:50;;;;;;;1999.90;999.90;;;;;;;9.21;91.42;95809.81;5011298;28;20288;-70
2021/09/14 03:48:17;;;;;;;1999.90;999.90;;;;;;;9.18;92.29;95812.94;5011178;28;20186;-71
2021/09/14 03:50:47;;;;;;;1999.90;999.90;;;;;;;9.24;91.06;95811.84;5011149;28;20982;-70
2021/09/14 03:53:14;;;;;;;1999.90;999.90;;;;;;;9.07;90.15;95821.84;5010962;28;20241;-71
2021/09/14 03:55:43;;;;;;;1999.90;999.90;;;;;;;8.94;89.01;95822.50;5011087;28;20289;-71
2021/09/14 03:58:10;;;;;;;1999.90;999.90;;;;;;;8.83;89.24;95826.25;5010901;28;20202;-70
2021/09/14 04:00:37;;;;;;;1999.90;999.90;;;;;;;8.74;90.78;95827.88;5010998;28;20752;-70
2021/09/14 04:03:07;;;;;;;1999.90;999.90;;;;;;;8.78;91.71;95824.47;5010845;28;20198;-70
2021/09/14 04:05:44;;;;;;;1999.90;999.90;;;;;;;8.74;91.54;95825.28;5011166;28;20225;-71
2021/09/14 04:10:57;;;;;;;1999.90;999.90;;;;;;;8.78;92.30;95823.69;5030480;28;20673;-70
2021/09/14 04:13:25;;;;;;;1999.90;999.90;;;;;;;8.81;93.00;95828.34;5030451;28;20666;-70
2021/09/14 04:15:52;;;;;;;1999.90;999.90;;;;;;;8.87;93.16;95833.19;5030294;28;20264;-71
2021/09/14 04:18:19;;;;;;;1999.90;999.90;;;;;;;8.94;92.89;95833.66;5030310;28;20198;-70
2021/09/14 04:20:47;;;;;;;1999.90;999.90;;;;;;;8.81;92.29;95836.13;5029899;28;20200;-68
2021/09/14 04:23:14;;;;;;;1999.90;999.90;;;;;;;8.67;92.67;95838.56;5030321;28;20662;-70
2021/09/14 04:25:41;;;;;;;1999.90;999.90;;;;;;;8.71;93.40;95838.81;5030550;28;20194;-70
2021/09/14 04:28:10;;;;;;;1999.90;999.90;;;;;;;8.67;94.49;95841.13;5030158;28;20240;-70
2021/09/14 04:30:37;;;;;;;1999.90;999.90;;;;;;;8.78;94.54;95844.41;5030228;28;20661;-70
2021/09/14 04:33:04;;;;;;;1999.90;999.90;;;;;;;8.93;94.10;95839.09;5030150;28;20736;-70
2021/09/14 04:35:31;;;;;;;1999.90;999.90;;;;;;;8.96;94.08;95844.53;5030586;28;20202;-70
2021/09/14 04:37:58;;;;;;;1999.90;999.90;;;;;;;9.00;94.19;95848.13;5030301;28;20198;-70
2021/09/14 04:40:26;;;;;;;1999.90;999.90;;;;;;;9.16;94.32;95848.75;5030057;28;20202;-71
2021/09/14 04:42:53;;;;;;;1999.90;999.90;;;;;;;9.30;93.82;95851.44;5030309;28;20228;-70
2021/09/14 04:45:22;;;;;;;1999.90;999.90;;;;;;;9.44;93.11;95858.28;5030056;28;20208;-70
2021/09/14 04:47:49;;;;;;;1999.90;999.90;;;;;;;9.57;93.26;95856.84;5030253;28;20245;-71
2021/09/14 04:50:17;;;;;;;1999.90;999.90;;;;;;;9.59;93.54;95853.97;5030010;28;20252;-70
2021/09/14 04:52:44;;;;;;;1999.90;999.90;;;;;;;9.64;94.46;95851.31;5030252;28;20197;-70
2021/09/14 04:55:11;;;;;;;1999.90;999.90;;;;;;;9.73;94.50;95844.47;5029913;28;20202;-72
2021/09/14 04:57:38;;;;;;;1999.90;999.90;;;;;;;9.82;94.74;95847.97;5030014;28;20190;-70
2021/09/14 05:00:07;;;;;;;1999.90;999.90;;;;;;;9.99;95.06;95848.28;5030102;28;20552;-72
2021/09/14 05:02:36;;;;;;;1999.90;999.90;;;;;;;10.02;94.77;95852.13;5029936;28;20206;-71
2021/09/14 05:05:03;;;;;;;1999.90;999.90;;;;;;;10.07;95.56;95858.03;5029807;28;20198;-71
2021/09/14 05:07:30;;;;;;;1999.90;999.90;;;;;;;10.13;95.97;95862.09;5029625;28;20335;-70
2021/09/14 05:09:58;;;;;;;1999.90;999.90;;;;;;;10.13;95.87;95863.94;5030076;28;20194;-68
2021/09/14 05:12:25;;;;;;;1999.90;999.90;;;;;;;10.23;96.83;95864.59;5029587;28;20205;-70
2021/09/14 05:14:52;;;;;;;1999.90;999.90;;;;;;;10.31;96.91;95871.75;5029665;28;20693;-71
2021/09/14 05:17:19;;;;;;;1999.90;999.90;;;;;;;10.39;97.77;95872.16;5029592;28;20198;-70
2021/09/14 05:19:50;;;;;;;1999.90;999.90;;;;;;;10.60;98.41;95878.63;5029726;28;20645;-72
2021/09/14 05:22:20;;;;;;;1999.90;999.90;;;;;;;11.29;97.05;95879.56;5029969;28;20224;-70
2021/09/14 05:24:47;;;;;;;1999.90;999.90;;;;;;;12.08;92.62;95881.66;5029969;28;20285;-70
2021/09/14 05:27:15;;;;;;;1999.90;999.90;;;;;;;13.02;88.47;95878.22;5029965;28;20234;-70
2021/09/14 05:29:42;;;;;;;1999.90;999.90;;;;;;;13.75;83.98;95884.69;5029807;28;20197;-70
2021/09/14 05:32:10;;;;;;;1999.90;999.90;;;;;;;14.57;80.58;95883.91;5030544;28;20198;-71
2021/09/14 05:34:37;;;;;;;1999.90;999.90;;;;;;;15.10;77.25;95883.53;5033403;28;20201;-71
2021/09/14 05:37:06;;;;;;;1999.90;999.90;;;;;;;15.52;75.32;95884.50;5033608;28;20201;-71
2021/09/14 05:39:34;;;;;;;1999.90;999.90;;;;;;;15.82;72.02;95895.78;5033337;28;20198;-71
2021/09/14 05:42:01;;;;;;;1999.90;999.90;;;;;;;15.58;71.83;95898.22;5033226;28;20661;-70
2021/09/14 05:44:28;;;;;;;1999.90;999.90;;;;;;;15.34;72.07;95896.84;5033528;28;20201;-70
2021/09/14 05:46:55;;;;;;;1999.90;999.90;;;;;;;15.29;72.42;95894.41;5033354;28;20222;-71
2021/09/14 05:49:22;;;;;;;1999.90;999.90;;;;;;;15.13;72.29;95895.25;5033577;28;20198;-71
2021/09/14 05:51:50;;;;;;;1999.90;999.90;;;;;;;14.94;73.00;95895.59;5032981;28;20230;-71
2021/09/14 05:54:18;;;;;;;1999.90;999.90;;;;;;;14.84;73.63;95903.75;5033056;28;20193;-72
2021/09/14 05:56:45;;;;;;;1999.90;999.90;;;;;;;14.87;74.40;95898.66;5033365;28;20212;-71
2021/09/14 05:59:12;;;;;;;1999.90;999.90;;;;;;;14.86;74.92;95902.34;5033317;28;20656;-71
2021/09/14 06:01:40;;;;;;;1999.90;999.90;;;;;;;14.98;74.24;95893.88;5032920;28;20194;-71
2021/09/14 06:04:07;;;;;;;1999.90;999.90;;;;;;;15.08;73.71;95893.56;5032862;28;20193;-71
2021/09/14 06:06:34;;;;;;;1999.90;999.90;;;;;;;15.18;73.10;95902.94;5032735;28;20320;-71
2021/09/14 06:09:01;;;;;;;1999.90;999.90;;;;;;;15.34;72.66;95902.09;5033101;28;20198;-70
2021/09/14 06:11:30;;;;;;;1999.90;999.90;;;;;;;15.31;72.48;95900.09;5033154;28;20271;-71
2021/09/14 06:13:57;;;;;;;1999.90;999.90;;;;;;;15.47;74.10;95901.16;5032584;28;20193;-71
2021/09/14 06:16:24;;;;;;;1999.90;999.90;;;;;;;15.66;72.65;95905.25;5032804;28;20583;-71
2021/09/14 06:18:51;;;;;;;1999.90;999.90;;;;;;;15.72;74.04;95907.38;5032558;28;20201;-70
2021/09/14 06:21:19;;;;;;;1999.90;999.90;;;;;;;15.88;71.57;95910.25;5032525;28;20198;-69
2021/09/14 06:23:46;;;;;;;1999.90;999.90;;;;;;;16.03;70.11;95911.56;5032825;28;20206;-70
2021/09/14 06:26:13;;;;;;;1999.90;999.90;;;;;;;16.18;68.73;95909.16;5032502;28;20237;-71
2021/09/14 06:28:42;;;;;;;1999.90;999.90;;;;;;;16.15;70.12;95901.91;5032834;28;20198;-71
2021/09/14 06:31:09;;;;;;;1999.90;999.90;;;;;;;16.26;70.28;95904.94;5032355;28;20286;-70
2021/09/14 06:33:36;;;;;;;1999.90;999.90;;;;;;;16.42;69.88;95905.91;5032674;28;20205;-71
2021/09/14 06:36:03;;;;;;;1999.90;999.90;;;;;;;16.65;67.98;95906.38;5032412;28;20688;-70
2021/09/14 06:38:31;;;;;;;1999.90;999.90;;;;;;;16.66;68.63;95910.53;5032266;28;20288;-71
2021/09/14 06:40:58;;;;;;;1999.90;999.90;;;;;;;16.86;68.07;95912.38;5032662;28;20661;-71
2021/09/14 06:43:25;;;;;;;1999.90;999.90;;;;;;;16.94;67.36;95901.00;5032150;28;20224;-70
2021/09/14 06:45:54;;;;;;;1999.90;999.90;;;;;;;17.03;66.01;95906.97;5032192;28;20208;-71
2021/09/14 06:48:21;;;;;;;1999.90;999.90;;;;;;;17.22;65.67;95911.72;5032246;28;20218;-71
2021/09/14 06:50:49;;;;;;;1999.90;999.90;;;;;;;17.28;65.68;95910.44;5032353;28;20198;-70
2021/09/14 06:53:17;;;;;;;1999.90;999.90;;;;;;;17.38;65.37;95917.13;5031901;28;20566;-70
2021/09/14 06:55:44;;;;;;;1999.90;999.90;;;;;;;17.59;64.88;95915.19;5032306;28;20198;-70
2021/09/14 06:58:11;;;;;;;1999.90;999.90;;;;;;;17.64;65.90;95913.13;5031878;28;20201;-70
2021/09/14 07:00:38;;;;;;;1999.90;999.90;;;;;;;17.72;64.25;95916.75;5031835;28;20205;-71
2021/09/14 07:03:08;;;;;;;1999.90;999.90;;;;;;;18.02;63.08;95909.41;5032177;28;20197;-70
2021/09/14 07:05:35;;;;;;;1999.90;999.90;;;;;;;18.26;62.77;95908.63;5032067;28;20209;-70
2021/09/14 07:08:02;;;;;;;1999.90;999.90;;;;;;;18.45;61.10;95919.31;5031421;28;20237;-71
2021/09/14 07:10:29;;;;;;;1999.90;999.90;;;;;;;18.62;61.19;95913.84;5031668;28;20692;-69
2021/09/14 07:12:56;;;;;;;1999.90;999.90;;;;;;;18.60;61.80;95912.63;5031836;28;20224;-70
2021/09/14 07:15:24;;;;;;;1999.90;999.90;;;;;;;18.79;61.13;95910.91;5031900;28;20208;-70
2021/09/14 07:17:51;;;;;;;1999.90;999.90;;;;;;;19.09;60.21;95907.94;5031468;28;20570;-72
2021/09/14 07:20:19;;;;;;;1999.90;999.90;;;;;;;19.29;57.57;95914.84;5031439;28;20208;-71
2021/09/14 07:22:47;;;;;;;1999.90;999.90;;;;;;;19.50;56.46;95912.03;5031423;28;20209;-71
2021/09/14 07:25:14;;;;;;;1999.90;999.90;;;;;;;19.62;56.46;95911.94;5031384;28;20208;-70
2021/09/14 07:27:41;;;;;;;1999.90;999.90;;;;;;;19.41;56.43;95914.78;5031232;28;20312;-71
2021/09/14 07:30:09;;;;;;;1999.90;999.90;;;;;;;19.49;55.17;95918.38;5031265;28;20666;-70
2021/09/14 07:32:36;;;;;;;1999.90;999.90;;;;;;;19.82;54.29;95912.78;5031219;28;20692;-71
2021/09/14 07:35:05;;;;;;;1999.90;999.90;;;;;;;19.98;53.67;95916.16;5031506;28;20266;-71
2021/09/14 07:37:34;;;;;;;1999.90;999.90;;;;;;;19.93;54.98;95911.16;5031116;28;20198;-70
2021/09/14 07:40:01;;;;;;;1999.90;999.90;;;;;;;20.16;54.85;95909.41;5031120;28;20194;-70
2021/09/14 07:42:28;;;;;;;1999.90;999.90;;;;;;;20.53;54.34;95910.63;5031183;28;20205;-70
2021/09/14 07:44:55;;;;;;;1999.90;999.90;;;;;;;20.49;52.88;95909.00;5031013;28;20288;-71
2021/09/14 07:47:22;;;;;;;1999.90;999.90;;;;;;;20.43;53.38;95905.09;5027861;28;20230;-71
2021/09/14 07:49:50;;;;;;;1999.90;999.90;;;;;;;20.79;52.71;95911.88;5022115;28;20869;-71
2021/09/14 07:52:17;;;;;;;1999.90;999.90;;;;;;;21.15;51.10;95916.00;5030866;28;20204;-70
2021/09/14 07:54:45;;;;;;;1999.90;999.90;;;;;;;21.02;50.00;95905.53;5029768;28;20206;-70
2021/09/14 07:57:12;;;;;;;1999.90;999.90;;;;;;;21.12;50.13;95908.75;5030715;28;20236;-72
2021/09/14 07:59:40;;;;;;;1999.90;999.90;;;;;;;20.99;51.30;95905.47;5030712;28;20216;-70
2021/09/14 08:02:07;;;;;;;1999.90;999.90;;;;;;;21.16;51.10;95897.16;5030644;28;20208;-71
2021/09/14 08:04:34;;;;;;;1999.90;999.90;;;;;;;21.23;50.79;95899.13;5030746;28;20205;-70
2021/09/14 08:07:01;;;;;;;1999.90;999.90;;;;;;;21.24;50.45;95898.78;5030179;28;20240;-70
2021/09/14 08:09:30;;;;;;;1999.90;999.90;;;;;;;21.48;49.51;95890.50;5030492;28;20200;-71
2021/09/14 08:12:00;;;;;;;1999.90;999.90;;;;;;;21.73;47.23;95885.63;5030517;28;20233;-71
2021/09/14 08:14:27;;;;;;;1999.90;999.90;;;;;;;22.02;47.68;95883.44;5030833;28;20186;-70
2021/09/14 08:16:55;;;;;;;1999.90;999.90;;;;;;;22.03;48.30;95880.41;5030531;28;20972;-70
2021/09/14 08:19:22;;;;;;;1999.90;999.90;;;;;;;22.09;48.27;95879.00;5030386;28;20196;-70
2021/09/14 08:21:49;;;;;;;1999.90;999.90;;;;;;;22.23;47.87;95879.19;5030669;28;20193;-71
2021/09/14 08:24:17;;;;;;;1999.90;999.90;;;;;;;22.70;47.44;95873.38;5030329;28;20208;-71
2021/09/14 08:26:45;;;;;;;1999.90;999.90;;;;;;;22.87;47.44;95872.03;5030225;28;20193;-71
2021/09/14 08:29:13;;;;;;;1999.90;999.90;;;;;;;22.81;46.43;95870.84;5030484;28;20222;-69
2021/09/14 08:31:41;;;;;;;1999.90;999.90;;;;;;;23.11;46.25;95876.81;5030583;28;20251;-71
2021/09/14 08:34:09;;;;;;;1999.90;999.90;;;;;;;23.38;46.13;95860.78;5030269;28;20217;-71
2021/09/14 08:36:36;;;;;;;1999.90;999.90;;;;;;;23.48;44.57;95863.56;5030143;28;20208;-69
2021/09/14 08:39:04;;;;;;;1999.90;999.90;;;;;;;23.52;44.77;95853.72;5030166;28;20198;-71
2021/09/14 08:41:32;;;;;;;1999.90;999.90;;;;;;;23.58;42.17;95854.91;5030164;28;20213;-70
2021/09/14 08:44:00;;;;;;;1999.90;999.90;;;;;;;23.33;42.26;95853.16;5030077;28;20735;-71
2021/09/14 08:46:29;;;;;;;1999.90;999.90;;;;;;;23.32;44.00;95841.00;5030023;28;20198;-69
2021/09/14 08:48:58;;;;;;;1999.90;999.90;;;;;;;23.53;43.23;95852.59;5030067;28;20237;-70
2021/09/14 08:51:26;;;;;;;1999.90;999.90;;;;;;;23.61;44.21;95845.47;5030339;28;20198;-70
2021/09/14 08:53:53;;;;;;;1999.90;999.90;;;;;;;23.66;41.47;95844.38;5030325;28;20198;-70
2021/09/14 08:56:20;;;;;;;1999.90;999.90;;;;;;;23.86;41.28;95835.75;5030035;28;20558;-69
2021/09/14 08:58:56;;;;;;;1999.90;999.90;;;;;;;24.03;40.92;95834.34;5030543;28;20194;-70
2021/09/14 09:01:23;;;;;;;1999.90;999.90;;;;;;;24.14;41.82;95837.84;5030290;28;20181;-70
2021/09/14 09:03:59;;;;;;;1999.90;999.90;;;;;;;24.25;40.88;95836.03;5030304;28;20197;-71
2021/09/14 09:06:36;;;;;;;1999.90;999.90;;;;;;;24.35;39.95;95831.88;5030723;28;20229;-68
2021/09/14 09:09:15;;;;;;;1999.90;999.90;;;;;;;24.53;39.36;95830.06;5034116;28;20291;-71
2021/09/14 09:11:54;;;;;;;1999.90;999.90;;;;;;;24.43;38.87;95826.22;5033813;28;20276;-70
2021/09/14 09:14:31;;;;;;;1999.90;999.90;;;;;;;24.53;40.43;95823.97;5033785;28;20733;-70
2021/09/14 09:17:04;;;;;;;1999.90;999.90;;;;;;;24.71;40.46;95824.78;5033760;28;20196;-70
2021/09/14 09:19:33;;;;;;;1999.90;999.90;;;;;;;24.86;39.82;95827.09;5034031;28;20186;-70
2021/09/14 09:22:00;;;;;;;1999.90;999.90;;;;;;;24.95;39.34;95818.06;5033613;28;20205;-71
2021/09/14 09:24:27;;;;;;;1999.90;999.90;;;;;;;25.01;39.06;95819.19;5033632;28;20201;-71
2021/09/14 09:26:55;;;;;;;1999.90;999.90;;;;;;;24.80;38.80;95814.56;5033831;28;20193;-70
2021/09/14 09:29:24;;;;;;;1999.90;999.90;;;;;;;25.27;39.35;95808.19;5033862;28;20601;-71
2021/09/14 09:31:53;;;;;;;1999.90;999.90;;;;;;;25.68;38.05;95808.59;5033686;28;20292;-70
2021/09/14 09:34:26;;;;;;;1999.90;999.90;;;;;;;25.53;37.66;95805.16;5033469;28;20202;-70
2021/09/14 09:37:07;;;;;;;1999.90;999.90;;;;;;;25.47;37.49;95804.00;5033441;28;20225;-70
2021/09/14 09:39:41;;;;;;;1999.90;999.90;;;;;;;25.77;35.65;95802.84;5033510;28;20268;-70
2021/09/14 09:42:09;;;;;;;1999.90;999.90;;;;;;;26.00;35.04;95806.59;5033298;28;20186;-69
2021/09/14 09:44:37;;;;;;;1999.90;999.90;;;;;;;25.99;35.98;95801.69;5033330;28;20204;-69
2021/09/14 09:47:05;;;;;;;1999.90;999.90;;;;;;;25.91;34.69;95803.59;5032634;28;20204;-71
2021/09/14 09:49:33;;;;;;;1999.90;999.90;;;;;;;26.24;35.21;95798.97;5033006;28;20549;-70
2021/09/14 09:52:02;;;;;;;1999.90;999.90;;;;;;;26.22;34.50;95802.00;5033108;28;20585;-70
2021/09/14 09:54:29;;;;;;;1999.90;999.90;;;;;;;26.33;34.05;95800.06;5033112;28;20600;-70
2021/09/14 09:56:58;;;;;;;1999.90;999.90;;;;;;;26.58;35.43;95797.28;5033238;28;20293;-71
2021/09/14 09:59:27;;;;;;;1999.90;999.90;;;;;;;26.65;34.30;95797.22;5033377;28;20276;-72
2021/09/14 10:02:15;;;;;;;1999.90;999.90;;;;;;;26.98;33.86;95788.69;5033402;28;20247;-71
2021/09/14 10:04:47;;;;;;;1999.90;999.90;;;;;;;27.12;33.25;95787.06;5033203;28;20186;-71
2021/09/14 10:07:17;;;;;;;1999.90;999.90;;;;;;;26.76;33.17;95787.28;5032980;28;20244;-71
2021/09/14 10:09:54;;;;;;;1999.90;999.90;;;;;;;26.72;31.62;95781.22;5032986;28;20221;-71
2021/09/14 10:12:26;;;;;;;1999.90;999.90;;;;;;;26.93;31.72;95780.34;5032815;28;20189;-71
2021/09/14 10:15:02;;;;;;;1999.90;999.90;;;;;;;27.13;30.92;95775.25;5032685;28;20200;-69
2021/09/14 10:17:30;;;;;;;1999.90;999.90;;;;;;;27.20;31.63;95773.28;5032441;28;20189;-70
2021/09/14 10:20:09;;;;;;;1999.90;999.90;;;;;;;27.14;30.49;95774.88;5032281;28;20202;-69
2021/09/14 10:22:38;;;;;;;1999.90;999.90;;;;;;;27.31;31.19;95771.28;5032783;28;20197;-70
2021/09/14 10:25:07;;;;;;;1999.90;999.90;;;;;;;27.37;31.32;95767.03;5032483;28;20214;-70
2021/09/14 10:27:37;;;;;;;1999.90;999.90;;;;;;;27.64;31.75;95769.13;5032766;28;20194;-70
2021/09/14 10:30:06;;;;;;;1999.90;999.90;;;;;;;27.44;30.70;95766.22;5032665;28;20198;-70
2021/09/14 10:32:41;;;;;;;1999.90;999.90;;;;;;;27.28;29.66;95768.66;5032501;28;20733;-70
2021/09/14 10:35:10;;;;;;;1999.90;999.90;;;;;;;27.11;29.77;95758.84;5032346;28;20204;-68
2021/09/14 10:37:40;;;;;;;1999.90;999.90;;;;;;;27.50;28.98;95758.56;5032428;28;20207;-71
2021/09/14 10:40:10;;;;;;;1999.90;999.90;;;;;;;27.71;29.27;95763.69;5032265;28;20284;-70
2021/09/14 10:42:39;;;;;;;1999.90;999.90;;;;;;;27.85;27.50;95754.78;5032379;28;20572;-69
2021/09/14 10:45:09;;;;;;;1999.90;999.90;;;;;;;27.82;27.25;95759.00;5032376;28;20202;-70
2021/09/14 10:47:38;;;;;;;1999.90;999.90;;;;;;;27.64;27.99;95758.44;5032101;28;20255;-70
2021/09/14 10:50:06;;;;;;;1999.90;999.90;;;;;;;27.79;27.75;95755.22;5032137;28;20830;-70
2021/09/14 10:52:35;;;;;;;1999.90;999.90;;;;;;;27.87;27.33;95755.13;5032374;28;20197;-70
2021/09/14 10:55:09;;;;;;;1999.90;999.90;;;;;;;27.65;28.17;95759.94;5032221;28;20272;-71
2021/09/14 10:57:38;;;;;;;1999.90;999.90;;;;;;;27.76;27.45;95744.56;5032352;28;20197;-71
2021/09/14 11:00:08;;;;;;;1999.90;999.90;;;;;;;27.76;27.41;95745.31;5031879;28;20211;-71
2021/09/14 11:02:35;;;;;;;1999.90;999.90;;;;;;;27.89;26.95;95748.25;5031798;28;20206;-71
2021/09/14 11:05:02;;;;;;;1999.90;999.90;;;;;;;27.86;27.67;95743.69;5032060;28;20554;-69
2021/09/14 11:07:31;;;;;;;1999.90;999.90;;;;;;;27.93;27.30;95743.63;5031495;28;20248;-69
2021/09/14 11:10:01;;;;;;;1999.90;999.90;;;;;;;28.03;27.04;95748.09;5032052;28;20920;-69
2021/09/14 11:12:31;;;;;;;1999.90;999.90;;;;;;;27.87;27.22;95739.88;5031645;28;20194;-70
2021/09/14 11:15:00;;;;;;;1999.90;999.90;;;;;;;27.95;26.93;95738.63;5031669;28;20186;-71
2021/09/14 11:17:30;;;;;;;1999.90;999.90;;;;;;;28.15;27.31;95734.22;5031872;28;20201;-70
2021/09/14 11:20:09;;;;;;;1999.90;999.90;;;;;;;28.34;25.31;95734.75;5031848;28;20580;-70
2021/09/14 11:22:38;;;;;;;1999.90;999.90;;;;;;;28.34;25.15;95734.75;5031461;28;20190;-70
2021/09/14 11:25:11;;;;;;;1999.90;999.90;;;;;;;28.33;25.03;95734.00;5031544;28;20292;-70
2021/09/14 11:27:40;;;;;;;1999.90;999.90;;;;;;;28.28;25.42;95737.13;5031432;28;20186;-71
2021/09/14 11:30:08;;;;;;;1999.90;999.90;;;;;;;28.37;26.62;95726.69;5031583;28;20257;-71
2021/09/14 11:32:36;;;;;;;1999.90;999.90;;;;;;;28.44;27.66;95728.50;5031550;28;20201;-71
2021/09/14 11:35:08;;;;;;;1999.90;999.90;;;;;;;28.51;27.71;95729.16;5031484;28;20668;-72
2021/09/14 11:37:35;;;;;;;1999.90;999.90;;;;;;;28.49;26.50;95728.81;5031056;28;20658;-71
2021/09/14 11:40:03;;;;;;;1999.90;999.90;;;;;;;28.34;26.84;95729.41;5031412;28;20193;-71
2021/09/14 11:42:31;;;;;;;1999.90;999.90;;;;;;;28.54;27.03;95722.25;5031074;28;20725;-72
2021/09/14 11:45:08;;;;;;;1999.90;999.90;;;;;;;28.54;25.89;95716.91;5031320;28;20233;-71
2021/09/14 11:47:43;;;;;;;1999.90;999.90;;;;;;;28.59;27.01;95719.88;5031357;28;20198;-70
2021/09/14 11:50:11;;;;;;;1999.90;999.90;;;;;;;28.60;26.39;95720.63;5031049;28;20217;-69